sensor_id;sensor_type;location;lat;lon;timestamp;pressure;altitude;pressure_sealevel;temperature;humidity
9423;BME280;65863;49.506;10.400;2023-04-26T00:02:12;97974.28;;;3.14;80.34
9423;BME280;65863;49.506;10.400;2023-04-26T00:04:56;97996.50;;;3.42;78.73
9423;BME280;65863;49.506;10.400;2023-04-26T00:07:41;98013.88;;;3.71;77.51
9423;BME280;65863;49.506;10.400;2023-04-26T00:10:26;98010.88;;;3.69;76.38
9423;BME280;65863;49.506;10.400;2023-04-26T00:13:10;97977.06;;;3.54;75.31
9423;BME280;65863;49.506;10.400;2023-04-26T00:15:54;98011.38;;;3.68;74.14
9423;BME280;65863;49.506;10.400;2023-04-26T00:18:38;98004.81;;;3.71;73.25
9423;BME280;65863;49.506;10.400;2023-04-26T00:21:22;98009.34;;;3.68;72.78
9423;BME280;65863;49.506;10.400;2023-04-26T00:24:07;98036.34;;;3.79;72.43
9423;BME280;65863;49.506;10.400;2023-04-26T00:26:54;97995.22;;;3.55;72.26
9423;BME280;65863;49.506;10.400;2023-04-26T00:29:38;97985.91;;;3.35;71.54
9423;BME280;65863;49.506;10.400;2023-04-26T00:32:22;98002.03;;;3.48;71.35
9423;BME280;65863;49.506;10.400;2023-04-26T00:35:07;97984.66;;;3.36;71.86
9423;BME280;65863;49.506;10.400;2023-04-26T00:37:51;97972.75;;;3.24;71.24
9423;BME280;65863;49.506;10.400;2023-04-26T00:40:35;98005.56;;;3.43;71.32
9423;BME280;65863;49.506;10.400;2023-04-26T00:43:19;98005.06;;;3.27;71.45
9423;BME280;65863;49.506;10.400;2023-04-26T00:46:03;98004.31;;;3.27;71.59
9423;BME280;65863;49.506;10.400;2023-04-26T00:48:47;98010.13;;;3.35;71.50
9423;BME280;65863;49.506;10.400;2023-04-26T00:51:31;97994.94;;;3.13;71.81
9423;BME280;65863;49.506;10.400;2023-04-26T00:54:15;97982.59;;;3.08;71.70
9423;BME280;65863;49.506;10.400;2023-04-26T00:56:59;97992.69;;;3.12;71.66
9423;BME280;65863;49.506;10.400;2023-04-26T00:59:44;98028.00;;;3.17;71.65
9423;BME280;65863;49.506;10.400;2023-04-26T01:02:28;98008.28;;;2.98;71.90
9423;BME280;65863;49.506;10.400;2023-04-26T01:05:12;98000.75;;;2.98;71.79
9423;BME280;65863;49.506;10.400;2023-04-26T01:07:57;97996.19;;;2.89;72.21
9423;BME280;65863;49.506;10.400;2023-04-26T01:10:42;98008.56;;;2.94;72.00
9423;BME280;65863;49.506;10.400;2023-04-26T01:13:27;98010.03;;;2.84;71.96
9423;BME280;65863;49.506;10.400;2023-04-26T01:16:12;98022.66;;;2.96;72.74
9423;BME280;65863;49.506;10.400;2023-04-26T01:19:05;98021.13;;;2.84;72.47
9423;BME280;65863;49.506;10.400;2023-04-26T01:21:49;98007.75;;;2.77;72.78
9423;BME280;65863;49.506;10.400;2023-04-26T01:24:34;98037.75;;;2.72;72.86
9423;BME280;65863;49.506;10.400;2023-04-26T01:27:20;98030.16;;;2.73;72.76
9423;BME280;65863;49.506;10.400;2023-04-26T01:30:05;98029.94;;;2.77;73.56
9423;BME280;65863;49.506;10.400;2023-04-26T01:32:49;98036.72;;;2.70;73.31
9423;BME280;65863;49.506;10.400;2023-04-26T01:35:33;98020.31;;;2.66;73.37
9423;BME280;65863;49.506;10.400;2023-04-26T01:38:17;98024.34;;;2.65;73.79
9423;BME280;65863;49.506;10.400;2023-04-26T01:41:03;98028.38;;;2.64;73.57
9423;BME280;65863;49.506;10.400;2023-04-26T01:43:49;98003.88;;;2.46;73.69
9423;BME280;65863;49.506;10.400;2023-04-26T01:46:33;98018.97;;;2.45;73.97
9423;BME280;65863;49.506;10.400;2023-04-26T01:49:17;98016.63;;;2.26;74.23
9423;BME280;65863;49.506;10.400;2023-04-26T01:52:01;98028.97;;;2.31;74.22
9423;BME280;65863;49.506;10.400;2023-04-26T01:54:45;98023.19;;;2.29;74.49
9423;BME280;65863;49.506;10.400;2023-04-26T01:57:29;98036.06;;;2.37;74.25
9423;BME280;65863;49.506;10.400;2023-04-26T02:00:13;98018.34;;;2.18;74.45
9423;BME280;65863;49.506;10.400;2023-04-26T02:02:57;98027.44;;;2.18;74.76
9423;BME280;65863;49.506;10.400;2023-04-26T02:05:41;98032.66;;;2.11;74.67
9423;BME280;65863;49.506;10.400;2023-04-26T02:08:25;98014.75;;;2.06;74.97
9423;BME280;65863;49.506;10.400;2023-04-26T02:11:09;98044.28;;;2.20;74.85
9423;BME280;65863;49.506;10.400;2023-04-26T02:13:53;98045.44;;;2.02;75.37
9423;BME280;65863;49.506;10.400;2023-04-26T02:16:38;98008.09;;;1.86;75.43
9423;BME280;65863;49.506;10.400;2023-04-26T02:19:23;98024.34;;;1.67;75.66
9423;BME280;65863;49.506;10.400;2023-04-26T02:22:07;98014.88;;;1.48;75.82
9423;BME280;65863;49.506;10.400;2023-04-26T02:24:51;98024.31;;;1.35;76.51
9423;BME280;65863;49.506;10.400;2023-04-26T02:27:35;98028.84;;;1.07;76.68
9423;BME280;65863;49.506;10.400;2023-04-26T02:30:19;98040.34;;;0.99;77.17
9423;BME280;65863;49.506;10.400;2023-04-26T02:33:03;98052.97;;;1.06;77.67
9423;BME280;65863;49.506;10.400;2023-04-26T02:35:47;98002.97;;;0.83;77.86
9423;BME280;65863;49.506;10.400;2023-04-26T02:38:33;98052.91;;;1.00;78.23
9423;BME280;65863;49.506;10.400;2023-04-26T02:41:18;97967.84;;;0.37;78.48
9423;BME280;65863;49.506;10.400;2023-04-26T02:44:02;98044.84;;;0.76;78.55
9423;BME280;65863;49.506;10.400;2023-04-26T02:46:46;98003.75;;;0.37;78.93
9423;BME280;65863;49.506;10.400;2023-04-26T02:49:31;98047.69;;;0.41;79.22
9423;BME280;65863;49.506;10.400;2023-04-26T02:52:16;98021.66;;;0.06;79.49
9423;BME280;65863;49.506;10.400;2023-04-26T02:55:01;98020.28;;;-0.04;80.03
9423;BME280;65863;49.506;10.400;2023-04-26T02:57:45;98056.66;;;0.15;80.18
9423;BME280;65863;49.506;10.400;2023-04-26T03:00:30;98023.34;;;-0.17;80.43
9423;BME280;65863;49.506;10.400;2023-04-26T03:03:14;98063.47;;;-0.01;80.86
9423;BME280;65863;49.506;10.400;2023-04-26T03:05:58;98032.31;;;-0.37;80.89
9423;BME280;65863;49.506;10.400;2023-04-26T03:08:42;98013.03;;;-0.52;81.47
9423;BME280;65863;49.506;10.400;2023-04-26T03:11:26;98026.25;;;-0.56;81.59
9423;BME280;65863;49.506;10.400;2023-04-26T03:14:10;98068.28;;;-0.46;81.64
9423;BME280;65863;49.506;10.400;2023-04-26T03:16:54;98013.69;;;-1.17;82.06
9423;BME280;65863;49.506;10.400;2023-04-26T03:19:38;98060.31;;;-0.74;82.27
9423;BME280;65863;49.506;10.400;2023-04-26T03:22:23;97977.31;;;-1.21;82.72
9423;BME280;65863;49.506;10.400;2023-04-26T03:25:07;98028.94;;;-0.92;82.85
9423;BME280;65863;49.506;10.400;2023-04-26T03:27:52;98025.28;;;-0.98;83.13
9423;BME280;65863;49.506;10.400;2023-04-26T03:30:36;98038.44;;;-1.08;83.53
9423;BME280;65863;49.506;10.400;2023-04-26T03:33:22;98047.81;;;-0.99;83.60
9423;BME280;65863;49.506;10.400;2023-04-26T03:36:06;98055.06;;;-1.02;83.91
9423;BME280;65863;49.506;10.400;2023-04-26T03:38:50;98031.38;;;-1.09;84.25
9423;BME280;65863;49.506;10.400;2023-04-26T03:41:36;98018.25;;;-1.29;84.49
9423;BME280;65863;49.506;10.400;2023-04-26T03:44:23;98067.53;;;-0.92;84.90
9423;BME280;65863;49.506;10.400;2023-04-26T03:47:07;98082.84;;;-0.76;84.81
9423;BME280;65863;49.506;10.400;2023-04-26T03:49:51;98064.09;;;-0.72;85.41
9423;BME280;65863;49.506;10.400;2023-04-26T03:52:35;98061.81;;;-0.58;85.55
9423;BME280;65863;49.506;10.400;2023-04-26T03:55:19;98044.03;;;-0.57;85.58
9423;BME280;65863;49.506;10.400;2023-04-26T03:58:04;98040.22;;;-0.45;85.80
9423;BME280;65863;49.506;10.400;2023-04-26T04:00:51;98067.41;;;-0.23;86.36
9423;BME280;65863;49.506;10.400;2023-04-26T04:03:35;98029.88;;;-0.50;86.37
9423;BME280;65863;49.506;10.400;2023-04-26T04:06:20;98030.06;;;-0.54;86.13
9423;BME280;65863;49.506;10.400;2023-04-26T04:09:04;98043.00;;;-0.45;86.50
9423;BME280;65863;49.506;10.400;2023-04-26T04:11:49;98043.94;;;-0.63;86.71
9423;BME280;65863;49.506;10.400;2023-04-26T04:14:34;98041.66;;;-0.64;86.85
9423;BME280;65863;49.506;10.400;2023-04-26T04:17:18;98030.94;;;-0.77;86.84
9423;BME280;65863;49.506;10.400;2023-04-26T04:20:02;98071.91;;;-0.40;87.07
9423;BME280;65863;49.506;10.400;2023-04-26T04:22:48;98091.28;;;-0.35;87.04
9423;BME280;65863;49.506;10.400;2023-04-26T04:25:33;98025.13;;;-0.94;87.05
9423;BME280;65863;49.506;10.400;2023-04-26T04:28:21;98096.16;;;-0.59;86.90
9423;BME280;65863;49.506;10.400;2023-04-26T04:31:06;98003.22;;;-1.28;86.83
9423;BME280;65863;49.506;10.400;2023-04-26T04:33:52;98045.06;;;-0.99;87.06
9423;BME280;65863;49.506;10.400;2023-04-26T04:36:37;98052.97;;;-0.92;87.54
9423;BME280;65863;49.506;10.400;2023-04-26T04:39:23;98088.84;;;-0.62;87.60
9423;BME280;65863;49.506;10.400;2023-04-26T04:42:07;98079.41;;;-0.71;87.71
9423;BME280;65863;49.506;10.400;2023-04-26T04:44:53;98050.81;;;-0.73;87.87
9423;BME280;65863;49.506;10.400;2023-04-26T04:47:37;98072.84;;;-0.58;87.84
9423;BME280;65863;49.506;10.400;2023-04-26T04:50:22;98104.13;;;-0.31;87.96
9423;BME280;65863;49.506;10.400;2023-04-26T04:53:07;98078.66;;;-0.71;87.84
9423;BME280;65863;49.506;10.400;2023-04-26T04:55:55;98094.44;;;-0.57;87.69
9423;BME280;65863;49.506;10.400;2023-04-26T04:58:40;98074.38;;;-0.57;88.01
9423;BME280;65863;49.506;10.400;2023-04-26T05:01:25;98077.97;;;-0.36;87.94
9423;BME280;65863;49.506;10.400;2023-04-26T05:04:12;98094.22;;;-0.08;88.17
9423;BME280;65863;49.506;10.400;2023-04-26T05:06:56;98061.03;;;-0.14;87.96
9423;BME280;65863;49.506;10.400;2023-04-26T05:09:41;98089.69;;;0.24;88.08
9423;BME280;65863;49.506;10.400;2023-04-26T05:12:25;98135.91;;;0.65;87.77
9423;BME280;65863;49.506;10.400;2023-04-26T05:15:09;98094.47;;;0.65;87.96
9423;BME280;65863;49.506;10.400;2023-04-26T05:17:54;98091.59;;;1.79;88.12
9423;BME280;65863;49.506;10.400;2023-04-26T05:20:41;98128.00;;;3.96;88.73
9423;BME280;65863;49.506;10.400;2023-04-26T05:23:24;98113.03;;;5.92;87.64
9423;BME280;65863;49.506;10.400;2023-04-26T05:26:12;98115.50;;;7.06;83.15
9423;BME280;65863;49.506;10.400;2023-04-26T05:29:16;98099.63;;;7.85;77.17
9423;BME280;65863;49.506;10.400;2023-04-26T05:32:09;98119.81;;;8.10;70.77
9423;BME280;65863;49.506;10.400;2023-04-26T05:34:57;98120.56;;;8.96;66.54
9423;BME280;65863;49.506;10.400;2023-04-26T05:37:41;98089.59;;;9.63;61.70
9423;BME280;65863;49.506;10.400;2023-04-26T05:40:27;98103.91;;;9.94;57.14
9423;BME280;65863;49.506;10.400;2023-04-26T05:43:10;98102.63;;;10.38;54.57
9423;BME280;65863;49.506;10.400;2023-04-26T05:45:55;98110.13;;;10.43;52.49
9423;BME280;65863;49.506;10.400;2023-04-26T05:48:40;98136.00;;;11.66;51.23
9423;BME280;65863;49.506;10.400;2023-04-26T05:51:24;98132.44;;;11.58;49.90
9423;BME280;65863;49.506;10.400;2023-04-26T05:54:09;98117.69;;;11.21;49.39
9423;BME280;65863;49.506;10.400;2023-04-26T05:56:53;98133.25;;;11.82;49.63
9423;BME280;65863;49.506;10.400;2023-04-26T05:59:38;98125.78;;;11.32;49.10
9423;BME280;65863;49.506;10.400;2023-04-26T06:02:22;98119.06;;;12.26;48.52
9423;BME280;65863;49.506;10.400;2023-04-26T06:05:08;98133.09;;;12.72;47.42
9423;BME280;65863;49.506;10.400;2023-04-26T06:07:53;98140.94;;;13.61;46.07
9423;BME280;65863;49.506;10.400;2023-04-26T06:10:37;98147.69;;;14.24;45.37
9423;BME280;65863;49.506;10.400;2023-04-26T06:13:20;98128.00;;;14.84;42.66
9423;BME280;65863;49.506;10.400;2023-04-26T06:16:05;98160.25;;;14.81;42.34
9423;BME280;65863;49.506;10.400;2023-04-26T06:18:49;98143.06;;;13.86;43.33
9423;BME280;65863;49.506;10.400;2023-04-26T06:21:34;98132.50;;;12.97;43.06
9423;BME280;65863;49.506;10.400;2023-04-26T06:24:17;98126.53;;;12.00;45.26
9423;BME280;65863;49.506;10.400;2023-04-26T06:27:02;98124.50;;;13.34;46.47
9423;BME280;65863;49.506;10.400;2023-04-26T06:29:47;98142.72;;;12.15;45.81
9423;BME280;65863;49.506;10.400;2023-04-26T06:32:34;98135.50;;;12.99;46.18
9423;BME280;65863;49.506;10.400;2023-04-26T06:35:18;98139.25;;;12.94;45.49
9423;BME280;65863;49.506;10.400;2023-04-26T06:38:02;98130.97;;;13.93;44.78
9423;BME280;65863;49.506;10.400;2023-04-26T06:40:46;98120.84;;;13.90;42.80
9423;BME280;65863;49.506;10.400;2023-04-26T06:43:30;98164.84;;;15.11;42.65
9423;BME280;65863;49.506;10.400;2023-04-26T06:46:23;98129.41;;;15.28;40.59
9423;BME280;65863;49.506;10.400;2023-04-26T06:49:11;98132.91;;;15.81;39.10
9423;BME280;65863;49.506;10.400;2023-04-26T06:51:55;98155.22;;;15.77;39.84
9423;BME280;65863;49.506;10.400;2023-04-26T06:54:39;98148.53;;;15.02;40.45
9423;BME280;65863;49.506;10.400;2023-04-26T06:57:23;98151.38;;;15.02;41.18
9423;BME280;65863;49.506;10.400;2023-04-26T07:00:07;98149.03;;;14.91;42.16
9423;BME280;65863;49.506;10.400;2023-04-26T07:02:52;98140.59;;;14.66;42.35
9423;BME280;65863;49.506;10.400;2023-04-26T07:05:38;98138.56;;;13.83;41.81
9423;BME280;65863;49.506;10.400;2023-04-26T07:08:22;98112.34;;;13.65;42.62
9423;BME280;65863;49.506;10.400;2023-04-26T07:11:11;98135.94;;;12.72;43.06
9423;BME280;65863;49.506;10.400;2023-04-26T07:13:55;98163.66;;;11.91;46.67
9423;BME280;65863;49.506;10.400;2023-04-26T07:16:40;98146.00;;;11.91;47.11
9423;BME280;65863;49.506;10.400;2023-04-26T07:19:24;98132.56;;;11.97;47.19
9423;BME280;65863;49.506;10.400;2023-04-26T07:22:09;98119.34;;;11.76;46.48
9423;BME280;65863;49.506;10.400;2023-04-26T07:24:53;98147.22;;;11.51;46.58
9423;BME280;65863;49.506;10.400;2023-04-26T07:27:37;98100.66;;;10.54;46.69
9423;BME280;65863;49.506;10.400;2023-04-26T07:30:21;98112.97;;;10.79;47.44
9423;BME280;65863;49.506;10.400;2023-04-26T07:33:05;98130.03;;;10.81;47.33
9423;BME280;65863;49.506;10.400;2023-04-26T07:35:53;98142.97;;;10.34;48.48
9423;BME280;65863;49.506;10.400;2023-04-26T07:38:39;98158.72;;;9.82;50.03
9423;BME280;65863;49.506;10.400;2023-04-26T07:41:23;98146.09;;;9.89;51.61
9423;BME280;65863;49.506;10.400;2023-04-26T07:44:07;98116.53;;;9.67;51.90
9423;BME280;65863;49.506;10.400;2023-04-26T07:46:51;98129.44;;;9.48;52.57
9423;BME280;65863;49.506;10.400;2023-04-26T07:49:35;98132.59;;;9.66;53.08
9423;BME280;65863;49.506;10.400;2023-04-26T07:52:19;98135.84;;;9.91;52.34
9423;BME280;65863;49.506;10.400;2023-04-26T07:55:04;98128.31;;;9.86;51.80
9423;BME280;65863;49.506;10.400;2023-04-26T07:57:48;98119.72;;;9.84;51.02
9423;BME280;65863;49.506;10.400;2023-04-26T08:00:32;98129.34;;;9.75;50.91
9423;BME280;65863;49.506;10.400;2023-04-26T08:03:21;98144.81;;;10.11;50.71
9423;BME280;65863;49.506;10.400;2023-04-26T08:06:05;98127.09;;;10.16;50.25
9423;BME280;65863;49.506;10.400;2023-04-26T08:08:50;98123.69;;;10.10;48.78
9423;BME280;65863;49.506;10.400;2023-04-26T08:11:35;98127.75;;;10.30;47.05
9423;BME280;65863;49.506;10.400;2023-04-26T08:14:19;98119.03;;;10.33;45.95
9423;BME280;65863;49.506;10.400;2023-04-26T08:17:04;98129.75;;;10.22;44.98
9423;BME280;65863;49.506;10.400;2023-04-26T08:19:48;98129.63;;;10.48;44.80
9423;BME280;65863;49.506;10.400;2023-04-26T08:22:32;98128.19;;;10.55;44.29
9423;BME280;65863;49.506;10.400;2023-04-26T08:25:16;98118.38;;;10.27;43.27
9423;BME280;65863;49.506;10.400;2023-04-26T08:28:00;98135.19;;;10.41;42.44
9423;BME280;65863;49.506;10.400;2023-04-26T08:30:45;98135.00;;;9.83;42.86
9423;BME280;65863;49.506;10.400;2023-04-26T08:33:29;98117.09;;;9.86;42.84
9423;BME280;65863;49.506;10.400;2023-04-26T08:36:13;98133.53;;;10.03;43.09
9423;BME280;65863;49.506;10.400;2023-04-26T08:38:58;98116.59;;;10.59;43.58
9423;BME280;65863;49.506;10.400;2023-04-26T08:41:44;98111.56;;;10.94;41.75
9423;BME280;65863;49.506;10.400;2023-04-26T08:44:34;98137.72;;;10.89;40.41
9423;BME280;65863;49.506;10.400;2023-04-26T08:50:43;98126.06;;;10.27;40.66
9423;BME280;65863;49.506;10.400;2023-04-26T08:53:30;98131.50;;;10.75;41.27
9423;BME280;65863;49.506;10.400;2023-04-26T08:56:17;98121.91;;;10.70;40.80
9423;BME280;65863;49.506;10.400;2023-04-26T08:59:01;98117.28;;;10.51;40.66
9423;BME280;65863;49.506;10.400;2023-04-26T09:01:46;98122.44;;;10.68;41.13
9423;BME280;65863;49.506;10.400;2023-04-26T09:04:30;98139.31;;;10.97;40.84
9423;BME280;65863;49.506;10.400;2023-04-26T09:07:20;98141.19;;;11.39;40.18
9423;BME280;65863;49.506;10.400;2023-04-26T09:10:04;98093.53;;;10.31;39.79
9423;BME280;65863;49.506;10.400;2023-04-26T09:12:53;98136.50;;;10.97;40.73
9423;BME280;65863;49.506;10.400;2023-04-26T09:15:37;98142.13;;;11.94;41.07
9423;BME280;65863;49.506;10.400;2023-04-26T09:18:22;98117.75;;;12.19;40.07
9423;BME280;65863;49.506;10.400;2023-04-26T09:21:07;98139.31;;;12.09;39.09
9423;BME280;65863;49.506;10.400;2023-04-26T09:24:01;98131.59;;;11.94;38.88
9423;BME280;65863;49.506;10.400;2023-04-26T09:26:59;98117.91;;;12.60;39.13
9423;BME280;65863;49.506;10.400;2023-04-26T09:29:59;98139.31;;;12.71;38.65
9423;BME280;65863;49.506;10.400;2023-04-26T09:32:57;98141.69;;;11.82;38.48
9423;BME280;65863;49.506;10.400;2023-04-26T09:35:42;98132.19;;;12.16;39.12
9423;BME280;65863;49.506;10.400;2023-04-26T09:38:26;98099.97;;;11.49;39.72
9423;BME280;65863;49.506;10.400;2023-04-26T09:41:10;98123.41;;;11.52;40.59
9423;BME280;65863;49.506;10.400;2023-04-26T09:43:55;98117.22;;;11.46;40.57
9423;BME280;65863;49.506;10.400;2023-04-26T09:46:39;98136.19;;;11.61;39.98
9423;BME280;65863;49.506;10.400;2023-04-26T09:49:25;98105.28;;;11.09;40.46
9423;BME280;65863;49.506;10.400;2023-04-26T09:52:09;98157.09;;;10.42;40.69
9423;BME280;65863;49.506;10.400;2023-04-26T09:54:53;98132.69;;;10.58;41.94
9423;BME280;65863;49.506;10.400;2023-04-26T09:57:41;98142.03;;;11.70;41.52
9423;BME280;65863;49.506;10.400;2023-04-26T10:00:27;98115.66;;;11.29;39.56
9423;BME280;65863;49.506;10.400;2023-04-26T10:03:11;98117.19;;;12.29;39.22
9423;BME280;65863;49.506;10.400;2023-04-26T10:05:56;98105.28;;;12.92;38.49
9423;BME280;65863;49.506;10.400;2023-04-26T10:08:41;98133.09;;;12.72;36.43
9423;BME280;65863;49.506;10.400;2023-04-26T10:11:25;98121.69;;;12.09;36.72
9423;BME280;65863;49.506;10.400;2023-04-26T10:14:10;98111.56;;;12.21;38.12
9423;BME280;65863;49.506;10.400;2023-04-26T10:16:55;98088.13;;;12.11;37.95
9423;BME280;65863;49.506;10.400;2023-04-26T10:19:41;98119.25;;;12.05;37.85
9423;BME280;65863;49.506;10.400;2023-04-26T10:22:35;98106.97;;;11.71;38.71
9423;BME280;65863;49.506;10.400;2023-04-26T10:25:33;98131.03;;;12.03;40.85
9423;BME280;65863;49.506;10.400;2023-04-26T10:35:11;98089.03;;;12.05;39.93
9423;BME280;65863;49.506;10.400;2023-04-26T10:40:42;98097.69;;;11.32;41.76
9423;BME280;65863;49.506;10.400;2023-04-26T10:43:29;98091.53;;;10.61;42.26
9423;BME280;65863;49.506;10.400;2023-04-26T10:46:32;98124.56;;;10.26;42.62
9423;BME280;65863;49.506;10.400;2023-04-26T10:49:18;98124.63;;;10.55;42.79
9423;BME280;65863;49.506;10.400;2023-04-26T10:52:13;98116.25;;;11.35;42.46
9423;BME280;65863;49.506;10.400;2023-04-26T10:54:59;98097.03;;;11.11;40.77
9423;BME280;65863;49.506;10.400;2023-04-26T10:57:47;98116.72;;;11.70;40.63
9423;BME280;65863;49.506;10.400;2023-04-26T11:00:31;98074.22;;;11.22;40.60
9423;BME280;65863;49.506;10.400;2023-04-26T11:03:16;98104.97;;;11.20;41.10
9423;BME280;65863;49.506;10.400;2023-04-26T11:06:05;98108.66;;;11.75;41.22
9423;BME280;65863;49.506;10.400;2023-04-26T11:08:50;98086.50;;;10.96;39.79
9423;BME280;65863;49.506;10.400;2023-04-26T11:11:49;98109.19;;;11.58;39.89
9423;BME280;65863;49.506;10.400;2023-04-26T11:14:35;98074.28;;;11.37;39.01
9423;BME280;65863;49.506;10.400;2023-04-26T11:17:19;98078.88;;;11.87;38.76
9423;BME280;65863;49.506;10.400;2023-04-26T11:20:08;98077.03;;;12.28;38.95
9423;BME280;65863;49.506;10.400;2023-04-26T11:22:52;98066.91;;;12.40;37.78
9423;BME280;65863;49.506;10.400;2023-04-26T11:25:38;98088.84;;;12.50;36.98
9423;BME280;65863;49.506;10.400;2023-04-26T11:28:22;98082.28;;;12.55;37.69
9423;BME280;65863;49.506;10.400;2023-04-26T11:31:06;98078.91;;;12.10;37.47
9423;BME280;65863;49.506;10.400;2023-04-26T11:33:50;98062.41;;;11.99;36.79
9423;BME280;65863;49.506;10.400;2023-04-26T11:36:36;98065.22;;;12.14;37.21
9423;BME280;65863;49.506;10.400;2023-04-26T11:39:21;98063.28;;;11.70;37.54
9423;BME280;65863;49.506;10.400;2023-04-26T11:42:09;98091.47;;;12.48;38.25
9423;BME280;65863;49.506;10.400;2023-04-26T11:44:55;98070.69;;;12.12;38.55
9423;BME280;65863;49.506;10.400;2023-04-26T11:47:40;98073.63;;;11.91;39.45
9423;BME280;65863;49.506;10.400;2023-04-26T11:50:25;98059.66;;;11.39;39.89
9423;BME280;65863;49.506;10.400;2023-04-26T11:53:09;98076.84;;;12.18;39.56
9423;BME280;65863;49.506;10.400;2023-04-26T11:55:53;98059.53;;;12.53;39.19
9423;BME280;65863;49.506;10.400;2023-04-26T11:58:37;98037.06;;;12.37;37.80
9423;BME280;65863;49.506;10.400;2023-04-26T12:01:23;98024.81;;;12.58;37.53
9423;BME280;65863;49.506;10.400;2023-04-26T12:04:08;98043.97;;;13.16;37.75
9423;BME280;65863;49.506;10.400;2023-04-26T12:06:52;98013.31;;;12.71;37.06
9423;BME280;65863;49.506;10.400;2023-04-26T12:09:39;98058.16;;;12.77;37.11
9423;BME280;65863;49.506;10.400;2023-04-26T12:12:23;98053.47;;;12.80;37.75
9423;BME280;65863;49.506;10.400;2023-04-26T12:15:10;98042.25;;;12.72;37.66
9423;BME280;65863;49.506;10.400;2023-04-26T12:18:05;98027.88;;;12.29;37.31
9423;BME280;65863;49.506;10.400;2023-04-26T12:20:56;98051.91;;;12.22;37.95
9423;BME280;65863;49.506;10.400;2023-04-26T12:23:40;98034.81;;;12.28;38.02
9423;BME280;65863;49.506;10.400;2023-04-26T12:26:41;97993.72;;;12.40;38.91
9423;BME280;65863;49.506;10.400;2023-04-26T12:29:25;98023.03;;;12.22;38.35
9423;BME280;65863;49.506;10.400;2023-04-26T12:32:11;98036.38;;;12.85;37.95
9423;BME280;65863;49.506;10.400;2023-04-26T12:34:55;98039.78;;;13.24;37.53
9423;BME280;65863;49.506;10.400;2023-04-26T12:37:39;98023.84;;;12.79;38.29
9423;BME280;65863;49.506;10.400;2023-04-26T12:40:23;98018.69;;;12.21;38.62
9423;BME280;65863;49.506;10.400;2023-04-26T12:43:07;98019.56;;;12.62;38.94
9423;BME280;65863;49.506;10.400;2023-04-26T12:45:51;98015.09;;;13.00;38.70
9423;BME280;65863;49.506;10.400;2023-04-26T12:48:35;98035.44;;;13.31;38.59
9423;BME280;65863;49.506;10.400;2023-04-26T12:51:19;98023.94;;;13.70;37.21
9423;BME280;65863;49.506;10.400;2023-04-26T12:54:04;98025.59;;;13.98;35.97
9423;BME280;65863;49.506;10.400;2023-04-26T12:56:48;98017.50;;;14.20;35.35
9423;BME280;65863;49.506;10.400;2023-04-26T12:59:32;98049.69;;;13.66;35.78
9423;BME280;65863;49.506;10.400;2023-04-26T13:02:16;98023.31;;;12.57;36.92
9423;BME280;65863;49.506;10.400;2023-04-26T13:05:00;98025.91;;;12.63;38.01
9423;BME280;65863;49.506;10.400;2023-04-26T13:07:47;98007.84;;;11.94;38.91
9423;BME280;65863;49.506;10.400;2023-04-26T13:10:31;98053.41;;;12.23;39.74
9423;BME280;65863;49.506;10.400;2023-04-26T13:13:15;98039.53;;;12.02;39.39
9423;BME280;65863;49.506;10.400;2023-04-26T13:15:59;98010.25;;;11.67;39.29
9423;BME280;65863;49.506;10.400;2023-04-26T13:18:43;97993.38;;;11.90;38.87
9423;BME280;65863;49.506;10.400;2023-04-26T13:21:28;98026.72;;;12.48;38.63
9423;BME280;65863;49.506;10.400;2023-04-26T13:24:12;98029.69;;;12.65;38.90
9423;BME280;65863;49.506;10.400;2023-04-26T13:26:56;98031.28;;;13.40;38.41
9423;BME280;65863;49.506;10.400;2023-04-26T13:29:40;98022.19;;;14.00;37.26
9423;BME280;65863;49.506;10.400;2023-04-26T13:32:25;97999.00;;;13.58;36.37
9423;BME280;65863;49.506;10.400;2023-04-26T13:35:09;98005.72;;;13.88;36.97
9423;BME280;65863;49.506;10.400;2023-04-26T13:37:54;98015.13;;;14.86;36.24
9423;BME280;65863;49.506;10.400;2023-04-26T13:40:39;98004.44;;;15.39;35.57
9423;BME280;65863;49.506;10.400;2023-04-26T13:43:23;98001.09;;;14.96;34.58
9423;BME280;65863;49.506;10.400;2023-04-26T13:46:08;98007.91;;;13.47;35.00
9423;BME280;65863;49.506;10.400;2023-04-26T13:48:51;97924.00;;;12.08;36.19
9423;BME280;65863;49.506;10.400;2023-04-26T13:51:35;97984.34;;;12.30;37.09
9423;BME280;65863;49.506;10.400;2023-04-26T13:54:20;98014.31;;;12.51;36.97
9423;BME280;65863;49.506;10.400;2023-04-26T13:57:08;98003.66;;;12.26;38.84
9423;BME280;65863;49.506;10.400;2023-04-26T13:59:53;98014.09;;;13.13;38.62
9423;BME280;65863;49.506;10.400;2023-04-26T14:02:37;97997.16;;;13.20;37.72
9423;BME280;65863;49.506;10.400;2023-04-26T14:05:21;97997.66;;;13.26;37.49
9423;BME280;65863;49.506;10.400;2023-04-26T14:08:06;98007.63;;;14.28;37.84
9423;BME280;65863;49.506;10.400;2023-04-26T14:10:51;98015.53;;;15.00;36.26
9423;BME280;65863;49.506;10.400;2023-04-26T14:13:35;98012.88;;;15.02;34.45
9423;BME280;65863;49.506;10.400;2023-04-26T14:16:19;97996.28;;;14.89;35.07
9423;BME280;65863;49.506;10.400;2023-04-26T14:19:03;97998.91;;;14.34;34.93
9423;BME280;65863;49.506;10.400;2023-04-26T14:21:47;97998.56;;;14.30;34.88
9423;BME280;65863;49.506;10.400;2023-04-26T14:24:32;97999.47;;;14.15;35.38
9423;BME280;65863;49.506;10.400;2023-04-26T14:27:17;98007.59;;;13.93;35.64
9423;BME280;65863;49.506;10.400;2023-04-26T14:30:01;98017.69;;;14.22;35.79
9423;BME280;65863;49.506;10.400;2023-04-26T14:32:45;98004.56;;;13.91;35.60
9423;BME280;65863;49.506;10.400;2023-04-26T14:35:28;97983.63;;;13.77;36.12
9423;BME280;65863;49.506;10.400;2023-04-26T14:38:13;97988.81;;;13.63;36.04
9423;BME280;65863;49.506;10.400;2023-04-26T14:40:56;97979.38;;;13.43;36.22
9423;BME280;65863;49.506;10.400;2023-04-26T14:43:41;97972.34;;;13.52;36.97
9423;BME280;65863;49.506;10.400;2023-04-26T14:46:35;98008.13;;;13.92;36.74
9423;BME280;65863;49.506;10.400;2023-04-26T14:49:20;98004.13;;;13.77;36.73
9423;BME280;65863;49.506;10.400;2023-04-26T14:52:04;98010.38;;;14.36;37.10